Time;durP1;ratioP1;P1;durP2;ratioP2;P2;SDS_P1;SDS_P2;PMS_P1;PMS_P2;Temp;Humidity;BMP_temperature;BMP_pressure;BME280_temperature;BME280_humidity;BME280_pressure;Samples;Min_cycle;Max_cycle;Signal;HPM_P1;HPM_P2
2023/11/01 00:01:08;;;;;;;13.63;9.63;;;9.80;99.90;;;;;;5093019;28;20232;-60
2023/11/01 00:03:35;;;;;;;15.67;8.67;;;9.90;99.90;;;;;;5093900;28;20188;-61
2023/11/01 00:06:02;;;;;;;11.60;8.68;;;9.90;99.90;;;;;;5093963;28;20433;-61
2023/11/01 00:08:30;;;;;;;12.65;8.60;;;9.90;99.90;;;;;;5093688;28;20200;-62
2023/11/01 00:10:57;;;;;;;14.98;7.65;;;9.80;99.90;;;;;;5093510;28;20200;-61
2023/11/01 00:13:24;;;;;;;11.82;8.18;;;9.80;99.90;;;;;;5093557;28;20200;-62
2023/11/01 00:15:51;;;;;;;9.43;7.73;;;9.90;99.90;;;;;;5093697;28;20206;-61
2023/11/01 00:18:18;;;;;;;10.10;7.70;;;9.80;99.90;;;;;;5093128;28;20474;-61
2023/11/01 00:20:45;;;;;;;10.73;8.23;;;9.80;99.90;;;;;;5093046;28;20295;-62
2023/11/01 00:23:12;;;;;;;10.90;7.80;;;9.80;99.90;;;;;;5093124;28;20504;-60
2023/11/01 00:25:40;;;;;;;8.73;6.70;;;9.80;99.90;;;;;;5093394;28;20442;-62
2023/11/01 00:28:07;;;;;;;9.60;7.40;;;9.80;99.90;;;;;;5095819;28;20442;-61
2023/11/01 00:30:34;;;;;;;9.35;7.30;;;9.70;99.90;;;;;;5097672;28;20199;-61
2023/11/01 00:33:00;;;;;;;10.53;6.70;;;9.70;99.90;;;;;;5097562;28;20227;-62
2023/11/01 00:35:27;;;;;;;10.88;8.10;;;9.60;99.90;;;;;;5097628;28;20435;-62
2023/11/01 00:37:54;;;;;;;10.40;7.93;;;9.60;99.90;;;;;;5097405;28;20223;-62
2023/11/01 00:40:20;;;;;;;10.07;7.03;;;9.60;99.90;;;;;;5097729;28;20450;-61
2023/11/01 00:42:48;;;;;;;12.45;7.80;;;9.60;99.90;;;;;;5097431;28;20976;-61
2023/11/01 00:45:16;;;;;;;9.13;7.53;;;9.60;99.90;;;;;;5098414;28;20588;-61
2023/11/01 00:47:43;;;;;;;9.23;7.35;;;9.60;99.90;;;;;;5100172;28;20204;-61
2023/11/01 00:50:10;;;;;;;9.68;8.27;;;9.70;99.90;;;;;;5100594;28;20204;-61
2023/11/01 00:52:36;;;;;;;12.82;9.10;;;9.70;99.90;;;;;;5101044;28;20220;-62
2023/11/01 00:55:04;;;;;;;10.23;8.33;;;9.70;99.90;;;;;;5099683;28;20205;-61
2023/11/01 00:57:32;;;;;;;12.63;8.05;;;9.70;99.90;;;;;;5100406;28;20576;-61
2023/11/01 01:00:01;;;;;;;12.00;8.50;;;9.70;99.90;;;;;;5098291;28;20261;-61
2023/11/01 01:02:28;;;;;;;10.00;8.32;;;9.60;99.90;;;;;;5097667;28;20466;-61
2023/11/01 01:04:55;;;;;;;11.32;9.00;;;9.60;99.90;;;;;;5096935;28;20685;-62
2023/11/01 01:07:22;;;;;;;11.70;7.60;;;9.60;99.90;;;;;;5097196;28;20197;-61
2023/11/01 01:09:49;;;;;;;10.90;8.38;;;9.60;99.90;;;;;;5096586;28;20204;-61
2023/11/01 01:12:16;;;;;;;10.70;9.10;;;9.60;99.90;;;;;;5096366;28;20736;-62
2023/11/01 01:14:43;;;;;;;12.98;9.60;;;9.60;99.90;;;;;;5096446;28;20670;-61
2023/11/01 01:17:12;;;;;;;14.35;9.85;;;9.60;99.90;;;;;;5096351;28;20221;-63
2023/11/01 01:19:39;;;;;;;15.38;10.40;;;9.60;99.90;;;;;;5096643;28;20215;-62
2023/11/01 01:22:05;;;;;;;14.52;9.13;;;9.60;99.90;;;;;;5096763;28;20334;-62
2023/11/01 01:24:32;;;;;;;17.03;10.40;;;9.60;99.90;;;;;;5096305;28;20693;-62
2023/11/01 01:26:59;;;;;;;15.33;9.80;;;9.70;99.90;;;;;;5096887;28;20449;-61
2023/11/01 01:29:25;;;;;;;12.25;9.90;;;9.70;99.90;;;;;;5096552;28;20951;-62
2023/11/01 01:31:52;;;;;;;14.38;9.40;;;9.70;99.90;;;;;;5096367;28;20216;-61
2023/11/01 01:34:20;;;;;;;12.67;9.63;;;9.80;99.90;;;;;;5096804;28;20580;-62
2023/11/01 01:36:47;;;;;;;19.00;10.93;;;9.80;99.90;;;;;;5096671;28;20445;-61
2023/11/01 01:39:14;;;;;;;15.37;11.50;;;9.80;99.90;;;;;;5096066;28;20204;-61
2023/11/01 01:41:40;;;;;;;17.10;12.17;;;9.90;99.90;;;;;;5096959;28;20462;-61
2023/11/01 01:44:07;;;;;;;16.30;10.03;;;9.90;99.90;;;;;;5096596;28;20448;-60
2023/11/01 01:46:34;;;;;;;16.13;11.97;;;9.90;99.90;;;;;;5096856;28;20445;-61
2023/11/01 01:49:01;;;;;;;15.40;10.03;;;10.00;99.90;;;;;;5096692;28;20449;-60
2023/11/01 01:51:29;;;;;;;14.98;11.32;;;10.00;99.90;;;;;;5096073;28;20469;-61
2023/11/01 01:53:57;;;;;;;18.53;12.30;;;10.00;99.90;;;;;;5096378;28;20211;-61
2023/11/01 01:56:25;;;;;;;18.10;11.47;;;10.00;99.90;;;;;;5096293;28;20434;-62
2023/11/01 01:58:52;;;;;;;12.63;10.13;;;10.00;99.90;;;;;;5095826;28;20493;-61
2023/11/01 02:01:20;;;;;;;14.00;9.83;;;10.00;99.90;;;;;;5095681;28;20481;-61
2023/11/01 02:03:47;;;;;;;14.35;10.10;;;10.00;99.90;;;;;;5095693;28;20423;-61
2023/11/01 02:06:14;;;;;;;13.57;10.20;;;10.00;99.90;;;;;;5095692;28;20204;-60
2023/11/01 02:08:42;;;;;;;12.85;9.55;;;10.00;99.90;;;;;;5095519;28;20437;-60
2023/11/01 02:11:08;;;;;;;15.20;10.20;;;10.00;99.90;;;;;;5095474;28;20220;-61
2023/11/01 02:13:35;;;;;;;16.85;11.70;;;10.00;99.90;;;;;;5095357;28;20438;-61
2023/11/01 02:16:02;;;;;;;13.25;10.27;;;10.00;99.90;;;;;;5095534;28;20277;-61
2023/11/01 02:18:29;;;;;;;15.17;11.33;;;10.00;99.90;;;;;;5096356;28;20224;-61
2023/11/01 02:20:56;;;;;;;11.10;9.77;;;10.00;99.90;;;;;;5095051;28;20924;-61
2023/11/01 02:23:33;;;;;;;10.87;9.77;;;10.00;99.90;;;;;;5095498;28;20430;-61
2023/11/01 02:26:00;;;;;;;11.30;9.93;;;10.00;99.90;;;;;;5095371;28;20422;-60
2023/11/01 02:28:27;;;;;;;13.07;9.90;;;10.00;99.90;;;;;;5095405;28;20529;-62
2023/11/01 02:30:54;;;;;;;12.75;10.32;;;10.00;99.90;;;;;;5094802;28;20939;-61
2023/11/01 02:33:21;;;;;;;17.40;9.30;;;10.00;99.90;;;;;;5095109;28;20223;-61
2023/11/01 02:35:48;;;;;;;15.77;8.60;;;10.00;99.90;;;;;;5095296;28;20442;-61
2023/11/01 02:38:14;;;;;;;10.90;8.33;;;10.10;99.90;;;;;;5094930;28;20478;-61
2023/11/01 02:40:42;;;;;;;10.23;8.50;;;10.00;99.90;;;;;;5095090;28;20439;-62
2023/11/01 02:43:10;;;;;;;10.80;8.30;;;10.00;99.90;;;;;;5094866;28;20470;-61
2023/11/01 02:45:37;;;;;;;16.77;8.00;;;10.00;99.90;;;;;;5095918;28;20434;-62
2023/11/01 02:48:04;;;;;;;12.27;7.30;;;9.90;99.90;;;;;;5095909;28;20762;-61
2023/11/01 02:50:30;;;;;;;7.65;6.82;;;9.90;99.90;;;;;;5095207;28;20952;-61
2023/11/01 02:52:57;;;;;;;10.40;6.77;;;9.90;99.90;;;;;;5095757;28;20231;-61
2023/11/01 02:55:24;;;;;;;6.93;6.23;;;9.90;99.90;;;;;;5096451;28;20474;-62
2023/11/01 02:57:52;;;;;;;10.00;5.70;;;10.00;99.90;;;;;;5094516;28;21026;-62
2023/11/01 03:00:19;;;;;;;5.93;5.20;;;10.00;99.90;;;;;;5095190;28;20966;-61
2023/11/01 03:02:47;;;;;;;6.30;5.47;;;10.00;99.90;;;;;;5096086;28;20485;-61
2023/11/01 03:05:14;;;;;;;7.07;5.03;;;10.00;99.90;;;;;;5095428;28;20439;-61
2023/11/01 03:07:41;;;;;;;7.17;4.93;;;10.00;99.90;;;;;;5096009;28;20453;-62
2023/11/01 03:10:09;;;;;;;4.75;4.25;;;10.00;99.90;;;;;;5095848;28;20447;-63
2023/11/01 03:12:37;;;;;;;6.47;4.57;;;10.00;99.90;;;;;;5096806;28;20224;-63
2023/11/01 03:15:07;;;;;;;4.80;3.85;;;9.90;99.90;;;;;;5097907;28;20439;-63
2023/11/01 03:17:34;;;;;;;5.10;4.60;;;10.00;99.90;;;;;;5098066;28;20616;-61
2023/11/01 03:20:01;;;;;;;5.47;4.40;;;10.00;99.90;;;;;;5097667;28;20474;-63
2023/11/01 03:22:27;;;;;;;5.10;4.03;;;10.00;99.90;;;;;;5098479;28;20462;-62
2023/11/01 03:24:54;;;;;;;5.73;4.20;;;10.00;99.90;;;;;;5095284;28;20817;-62
2023/11/01 03:27:21;;;;;;;5.27;4.50;;;10.10;99.90;;;;;;5094489;28;20438;-61
2023/11/01 03:29:48;;;;;;;4.23;3.83;;;10.10;99.90;;;;;;5094592;28;20446;-62
2023/11/01 03:32:16;;;;;;;3.90;3.60;;;10.10;99.90;;;;;;5094549;28;20462;-61
2023/11/01 03:34:43;;;;;;;4.20;3.40;;;10.10;99.90;;;;;;5093925;28;20476;-62
2023/11/01 03:37:09;;;;;;;4.70;4.30;;;10.10;99.90;;;;;;5094306;28;20445;-62
2023/11/01 03:39:36;;;;;;;5.33;3.70;;;10.10;99.90;;;;;;5093948;28;20491;-62
2023/11/01 03:42:04;;;;;;;6.57;3.90;;;10.10;99.90;;;;;;5094033;28;20459;-61
2023/11/01 03:44:32;;;;;;;4.37;3.97;;;10.10;99.90;;;;;;5093585;28;20438;-62
2023/11/01 03:46:59;;;;;;;5.67;3.47;;;10.10;99.90;;;;;;5093913;28;20503;-61
2023/11/01 03:49:29;;;;;;;4.87;4.23;;;10.10;99.90;;;;;;5093643;28;20441;-62
2023/11/01 03:51:56;;;;;;;4.73;4.03;;;10.20;99.90;;;;;;5093570;28;20473;-62
2023/11/01 03:54:23;;;;;;;5.00;4.50;;;10.20;99.90;;;;;;5093874;28;20790;-61
2023/11/01 03:56:50;;;;;;;4.87;4.37;;;10.20;99.90;;;;;;5093974;28;20438;-62
2023/11/01 03:59:17;;;;;;;5.20;4.13;;;10.20;99.90;;;;;;5093745;28;20474;-61
2023/11/01 04:01:44;;;;;;;4.40;4.00;;;10.20;99.90;;;;;;5093344;28;20585;-62
2023/11/01 04:04:10;;;;;;;4.27;3.87;;;10.20;99.90;;;;;;5093154;28;20442;-61
2023/11/01 04:06:39;;;;;;;4.77;3.87;;;10.20;99.90;;;;;;5093301;28;20440;-61
2023/11/01 04:12:27;;;;;;;7.37;4.60;;;10.30;99.90;;;;;;5111128;27;20552;-62
2023/11/01 04:14:53;;;;;;;5.10;3.90;;;10.30;99.90;;;;;;5110893;28;20445;-62
2023/11/01 04:17:20;;;;;;;6.30;4.97;;;10.30;99.90;;;;;;5111039;28;20438;-63
2023/11/01 04:19:47;;;;;;;5.17;4.67;;;10.30;99.90;;;;;;5111076;28;21041;-63
2023/11/01 04:22:14;;;;;;;4.60;4.20;;;10.30;99.90;;;;;;5111715;28;20462;-62
2023/11/01 04:24:41;;;;;;;6.10;5.10;;;10.30;99.90;;;;;;5115382;22;20997;-62
2023/11/01 04:27:08;;;;;;;5.23;4.17;;;10.30;99.90;;;;;;5051014;28;20445;-62
2023/11/01 04:29:36;;;;;;;4.60;4.20;;;10.30;99.90;;;;;;5051140;28;20444;-63
2023/11/01 04:32:03;;;;;;;4.63;4.17;;;10.30;99.90;;;;;;5051495;28;20565;-63
2023/11/01 04:34:30;;;;;;;4.20;3.80;;;10.30;99.90;;;;;;5052240;28;20518;-63
2023/11/01 04:36:57;;;;;;;4.77;4.17;;;10.30;99.90;;;;;;5051421;28;20444;-63
2023/11/01 04:39:23;;;;;;;5.40;4.37;;;10.30;99.90;;;;;;5050944;28;20453;-62
2023/11/01 04:41:50;;;;;;;4.43;3.90;;;10.30;99.90;;;;;;5050320;28;20947;-62
2023/11/01 04:44:17;;;;;;;4.83;4.20;;;10.30;99.90;;;;;;5050097;28;20978;-62
2023/11/01 04:46:45;;;;;;;4.80;4.40;;;10.30;99.90;;;;;;5050490;28;20483;-62
2023/11/01 04:49:12;;;;;;;4.50;3.50;;;10.30;99.90;;;;;;5050849;28;20444;-62
2023/11/01 04:51:38;;;;;;;4.73;3.77;;;10.30;99.90;;;;;;5050108;28;20487;-63
2023/11/01 04:54:06;;;;;;;4.60;4.20;;;10.40;99.90;;;;;;5050385;28;20448;-62
2023/11/01 04:56:33;;;;;;;7.57;3.53;;;10.40;99.90;;;;;;5053300;28;20447;-63
2023/11/01 04:59:00;;;;;;;4.50;4.10;;;10.40;99.90;;;;;;5056748;28;20440;-63
2023/11/01 05:01:30;;;;;;;6.53;3.87;;;10.40;99.90;;;;;;5074165;22;20530;-62
2023/11/01 05:03:58;;;;;;;6.03;4.00;;;10.40;99.90;;;;;;5049863;28;20980;-62
2023/11/01 05:06:26;;;;;;;6.33;3.47;;;10.40;99.90;;;;;;5049939;28;20433;-62
2023/11/01 05:08:53;;;;;;;5.83;3.80;;;10.40;99.90;;;;;;5049907;28;20478;-61
2023/11/01 05:11:22;;;;;;;5.10;4.20;;;10.40;99.90;;;;;;5049459;28;20578;-61
2023/11/01 05:13:48;;;;;;;4.07;3.77;;;10.40;99.90;;;;;;5049414;28;20455;-61
2023/11/01 05:16:14;;;;;;;5.60;4.00;;;10.40;99.90;;;;;;5049223;28;20444;-61
2023/11/01 05:18:41;;;;;;;5.10;3.90;;;10.40;99.90;;;;;;5049320;28;20202;-61
2023/11/01 05:21:09;;;;;;;4.17;3.77;;;10.40;99.90;;;;;;5049199;28;20510;-61
2023/11/01 05:23:36;;;;;;;6.00;4.30;;;10.50;99.90;;;;;;5036577;28;20445;-61
2023/11/01 05:26:03;;;;;;;5.33;4.10;;;10.50;99.90;;;;;;5036542;28;20449;-61
2023/11/01 05:28:29;;;;;;;4.43;3.73;;;10.50;99.90;;;;;;5035915;28;20437;-62
2023/11/01 05:30:56;;;;;;;6.03;4.37;;;10.50;99.90;;;;;;5035850;28;20487;-61
2023/11/01 05:33:23;;;;;;;4.03;3.63;;;10.50;99.90;;;;;;5036269;28;20455;-62
2023/11/01 05:35:49;;;;;;;4.03;3.30;;;10.50;99.90;;;;;;5038991;28;20456;-63
2023/11/01 05:38:18;;;;;;;5.50;4.10;;;10.50;99.90;;;;;;5044931;28;20448;-63
2023/11/01 05:40:44;;;;;;;6.53;3.80;;;10.50;99.90;;;;;;5044637;28;20441;-63
2023/11/01 05:43:11;;;;;;;10.83;3.90;;;10.50;99.90;;;;;;5045048;28;20449;-62
2023/11/01 05:45:38;;;;;;;3.50;3.20;;;10.50;99.90;;;;;;5042904;28;20459;-62
2023/11/01 05:48:07;;;;;;;3.47;3.17;;;10.50;99.90;;;;;;5041210;28;20943;-62
2023/11/01 05:50:36;;;;;;;5.07;3.60;;;10.60;99.90;;;;;;5036687;28;20471;-63
2023/11/01 05:53:08;;;;;;;4.50;3.60;;;10.60;99.90;;;;;;5035213;28;20515;-60
2023/11/01 05:55:37;;;;;;;3.90;3.10;;;10.60;99.90;;;;;;5035627;28;20426;-61
2023/11/01 05:58:07;;;;;;;3.90;3.50;;;10.60;99.90;;;;;;5035520;28;20441;-61
2023/11/01 06:00:33;;;;;;;4.77;3.37;;;10.60;99.90;;;;;;5035032;28;20449;-61
2023/11/01 06:03:00;;;;;;;4.00;3.27;;;10.60;99.90;;;;;;5035114;28;20480;-60
2023/11/01 06:05:27;;;;;;;3.27;2.97;;;10.60;99.90;;;;;;5035100;28;20516;-61
2023/11/01 06:07:54;;;;;;;5.83;3.70;;;10.60;99.90;;;;;;5034844;28;20444;-61
2023/11/01 06:10:21;;;;;;;14.73;3.60;;;10.60;99.90;;;;;;5034715;28;20441;-61
2023/11/01 06:12:49;;;;;;;3.80;3.40;;;10.60;99.90;;;;;;5034497;28;20481;-61
2023/11/01 06:15:16;;;;;;;4.23;3.03;;;10.60;99.90;;;;;;5035107;28;20452;-61
2023/11/01 06:17:42;;;;;;;5.73;3.30;;;10.60;99.90;;;;;;5034802;28;20476;-63
2023/11/01 06:20:10;;;;;;;5.37;3.10;;;10.60;99.90;;;;;;5034720;28;20452;-61
2023/11/01 06:22:37;;;;;;;3.27;2.97;;;10.60;99.90;;;;;;5035093;28;20465;-62
2023/11/01 06:25:04;;;;;;;4.43;3.20;;;10.60;99.90;;;;;;5034264;28;20953;-62
2023/11/01 06:27:31;;;;;;;4.13;3.10;;;10.60;99.90;;;;;;5034563;28;20437;-61
2023/11/01 06:29:59;;;;;;;3.70;2.87;;;10.70;99.90;;;;;;5034547;28;20441;-62
2023/11/01 06:32:25;;;;;;;4.60;3.17;;;10.70;99.90;;;;;;5034667;28;20484;-63
2023/11/01 06:34:52;;;;;;;4.27;3.60;;;10.70;99.90;;;;;;5033520;28;20441;-62
2023/11/01 06:37:19;;;;;;;5.83;3.40;;;10.70;99.90;;;;;;5035240;28;20465;-62
2023/11/01 06:39:45;;;;;;;5.00;3.00;;;10.70;99.90;;;;;;5035397;28;20441;-62
2023/11/01 06:42:12;;;;;;;5.97;4.50;;;10.70;99.90;;;;;;5035623;28;20468;-61
2023/11/01 06:44:39;;;;;;;4.30;3.90;;;10.70;99.90;;;;;;5034947;28;20449;-60
2023/11/01 06:47:07;;;;;;;4.57;3.90;;;10.70;99.90;;;;;;5034378;28;20820;-61
2023/11/01 06:49:34;;;;;;;5.60;3.77;;;10.70;99.90;;;;;;5034286;28;20930;-61
2023/11/01 06:52:01;;;;;;;5.50;4.00;;;10.70;99.90;;;;;;5034102;28;20966;-60
2023/11/01 06:54:28;;;;;;;6.00;3.77;;;10.80;99.90;;;;;;5034197;28;20452;-62
2023/11/01 06:56:55;;;;;;;5.50;4.03;;;10.80;99.90;;;;;;5033720;28;20445;-61
2023/11/01 06:59:23;;;;;;;4.50;3.80;;;10.80;99.90;;;;;;5033840;28;20480;-61
2023/11/01 07:01:49;;;;;;;4.57;3.90;;;10.80;99.90;;;;;;5033580;28;20464;-61
2023/11/01 07:04:18;;;;;;;9.00;4.03;;;10.80;99.90;;;;;;5033654;28;20441;-62
2023/11/01 07:06:44;;;;;;;5.20;3.60;;;10.90;99.90;;;;;;5033143;28;20764;-61
2023/11/01 07:09:11;;;;;;;7.70;3.83;;;10.90;99.90;;;;;;5033436;28;20448;-61
2023/11/01 07:11:38;;;;;;;4.00;3.60;;;11.00;99.90;;;;;;5033492;28;20531;-62
2023/11/01 07:14:05;;;;;;;6.63;4.17;;;11.00;99.90;;;;;;5033309;28;20800;-61
2023/11/01 07:16:32;;;;;;;6.13;4.30;;;11.00;99.90;;;;;;5033547;28;20441;-61
2023/11/01 07:18:59;;;;;;;6.20;4.30;;;11.00;99.90;;;;;;5033265;28;20821;-61
2023/11/01 07:21:27;;;;;;;6.97;4.20;;;11.00;99.90;;;;;;5033372;28;20464;-60
2023/11/01 07:23:54;;;;;;;5.30;4.50;;;11.00;99.90;;;;;;5033698;28;20441;-61
2023/11/01 07:26:20;;;;;;;3.90;3.50;;;11.10;99.90;;;;;;5033464;28;20437;-61
2023/11/01 07:28:47;;;;;;;4.90;3.90;;;11.10;99.90;;;;;;5033002;28;20943;-62
2023/11/01 07:31:14;;;;;;;7.80;4.80;;;11.10;99.90;;;;;;5034169;28;20465;-62
2023/11/01 07:33:42;;;;;;;5.70;3.93;;;11.10;99.90;;;;;;5033975;28;20477;-61
2023/11/01 07:36:09;;;;;;;6.67;4.07;;;11.10;99.90;;;;;;5034113;28;20445;-63
2023/11/01 07:38:38;;;;;;;4.07;3.67;;;11.20;99.90;;;;;;5033291;28;20448;-61
2023/11/01 07:41:05;;;;;;;5.23;3.70;;;11.20;99.90;;;;;;5033052;28;20796;-61
2023/11/01 07:43:31;;;;;;;6.90;3.97;;;11.20;99.90;;;;;;5033068;28;20456;-61
2023/11/01 07:45:59;;;;;;;5.00;4.33;;;11.20;99.90;;;;;;5033054;28;20445;-61
2023/11/01 07:48:25;;;;;;;7.93;4.27;;;11.20;99.90;;;;;;5033185;28;20479;-62
2023/11/01 07:50:52;;;;;;;4.30;3.90;;;11.20;99.90;;;;;;5033244;28;20459;-62
2023/11/01 07:53:19;;;;;;;7.13;4.00;;;11.20;99.90;;;;;;5033016;28;20480;-63
2023/11/01 07:55:47;;;;;;;9.00;4.23;;;11.20;99.90;;;;;;5033790;28;20444;-61
2023/11/01 07:58:14;;;;;;;5.43;3.97;;;11.20;99.90;;;;;;5033792;28;20449;-62
2023/11/01 08:00:41;;;;;;;8.20;4.50;;;11.20;99.90;;;;;;5037679;28;20453;-62
2023/11/01 08:03:08;;;;;;;7.30;4.50;;;11.20;99.90;;;;;;5036727;28;20460;-61
2023/11/01 08:05:35;;;;;;;4.43;4.00;;;11.30;99.90;;;;;;5037694;28;20445;-62
2023/11/01 08:08:01;;;;;;;6.03;4.50;;;11.30;99.90;;;;;;5039243;28;20828;-61
2023/11/01 08:10:29;;;;;;;6.00;3.67;;;11.30;99.90;;;;;;5034969;28;20449;-62
2023/11/01 08:12:57;;;;;;;4.57;3.60;;;11.30;99.90;;;;;;5032712;28;20477;-61
2023/11/01 08:15:24;;;;;;;5.43;3.63;;;11.30;99.90;;;;;;5032728;28;20441;-62
2023/11/01 08:17:50;;;;;;;5.43;3.70;;;11.30;99.90;;;;;;5032544;28;20444;-61
2023/11/01 08:20:17;;;;;;;8.60;4.43;;;11.30;99.90;;;;;;5032398;28;20899;-61
2023/11/01 08:22:44;;;;;;;6.00;4.20;;;11.30;99.90;;;;;;5032861;28;20475;-61
2023/11/01 08:25:12;;;;;;;4.43;3.23;;;11.40;99.90;;;;;;5032441;28;20825;-61
2023/11/01 08:27:40;;;;;;;5.97;4.20;;;11.30;99.90;;;;;;5032118;28;21057;-61
2023/11/01 08:30:09;;;;;;;8.07;3.60;;;11.40;99.90;;;;;;5032338;28;20448;-61
2023/11/01 08:32:36;;;;;;;8.10;3.73;;;11.40;99.90;;;;;;5031984;28;20935;-62
2023/11/01 08:35:03;;;;;;;5.33;3.20;;;11.40;99.90;;;;;;5032884;28;20448;-61
2023/11/01 08:37:29;;;;;;;3.10;2.60;;;11.50;99.90;;;;;;5032982;28;20436;-62
2023/11/01 08:39:56;;;;;;;5.70;3.47;;;11.50;99.90;;;;;;5033471;28;20548;-62
2023/11/01 08:42:23;;;;;;;4.63;3.73;;;11.60;99.90;;;;;;5032776;28;20891;-61
2023/11/01 08:44:50;;;;;;;7.10;2.83;;;11.60;99.90;;;;;;5032345;28;20442;-63
2023/11/01 08:47:37;;;;;;;4.07;2.10;;;11.60;99.90;;;;;;5032732;28;20445;-62
2023/11/01 08:50:04;;;;;;;3.80;2.40;;;11.60;99.90;;;;;;5032642;28;20479;-62
2023/11/01 08:52:32;;;;;;;4.67;2.90;;;11.70;99.90;;;;;;5032465;28;20496;-62
2023/11/01 08:54:59;;;;;;;3.93;3.00;;;11.70;99.90;;;;;;5031960;28;20988;-61
2023/11/01 08:57:26;;;;;;;6.93;2.90;;;11.70;99.90;;;;;;5032903;28;20816;-63
2023/11/01 08:59:57;;;;;;;3.03;2.33;;;11.70;99.90;;;;;;5036650;28;20449;-62
2023/11/01 09:02:25;;;;;;;2.63;2.43;;;11.80;99.90;;;;;;5035952;28;20504;-61
2023/11/01 09:04:54;;;;;;;2.47;2.27;;;11.80;99.90;;;;;;5036394;28;20883;-62
2023/11/01 09:07:21;;;;;;;4.73;2.57;;;11.80;99.90;;;;;;5036132;28;21011;-63
2023/11/01 09:09:48;;;;;;;3.27;2.77;;;11.80;99.90;;;;;;5036197;28;20950;-62
2023/11/01 09:12:15;;;;;;;4.13;2.63;;;11.80;99.90;;;;;;5036353;28;20485;-62
2023/11/01 09:14:42;;;;;;;3.63;2.53;;;11.80;99.90;;;;;;5036302;28;20448;-62
2023/11/01 09:17:08;;;;;;;3.63;2.80;;;11.80;99.90;;;;;;5035981;28;20445;-62
2023/11/01 09:19:35;;;;;;;4.40;3.03;;;11.90;99.90;;;;;;5036342;28;20471;-62
2023/11/01 09:22:04;;;;;;;3.23;2.93;;;11.90;99.90;;;;;;5036172;28;20463;-62
2023/11/01 09:24:31;;;;;;;5.23;3.40;;;11.90;99.90;;;;;;5036393;28;20444;-62
2023/11/01 09:26:57;;;;;;;4.03;2.37;;;12.00;99.90;;;;;;5036357;28;20445;-63
2023/11/01 09:29:24;;;;;;;4.67;2.97;;;12.10;99.90;;;;;;5035960;28;20452;-62
2023/11/01 09:31:51;;;;;;;2.50;2.20;;;12.10;99.90;;;;;;5035750;28;20461;-62
2023/11/01 09:34:19;;;;;;;2.43;2.23;;;12.20;99.90;;;;;;5036067;28;20445;-63
2023/11/01 09:36:46;;;;;;;5.80;2.60;;;12.20;99.90;;;;;;5035857;28;20447;-62
2023/11/01 09:39:14;;;;;;;2.10;2.00;;;12.30;99.90;;;;;;5035680;28;20445;-62
2023/11/01 09:41:48;;;;;;;6.30;2.53;;;12.30;99.90;;;;;;5035198;28;20469;-62
2023/11/01 09:44:17;;;;;;;2.60;1.80;;;12.40;99.90;;;;;;5035656;28;20433;-61
2023/11/01 09:46:44;;;;;;;2.93;2.03;;;12.50;99.90;;;;;;5035706;28;20441;-62
2023/11/01 09:49:11;;;;;;;5.00;2.67;;;12.50;99.90;;;;;;5035969;28;20453;-61
2023/11/01 09:51:38;;;;;;;2.67;1.83;;;12.60;99.90;;;;;;5035199;28;21000;-61
2023/11/01 09:54:06;;;;;;;2.43;2.00;;;12.60;99.90;;;;;;5035564;28;20480;-61
2023/11/01 09:56:37;;;;;;;2.50;2.10;;;12.70;99.90;;;;;;5035246;28;20510;-62
2023/11/01 09:59:05;;;;;;;3.90;1.90;;;12.70;99.90;;;;;;5035498;28;20429;-62
2023/11/01 10:01:33;;;;;;;2.60;1.70;;;12.70;99.90;;;;;;5035211;28;20477;-62
2023/11/01 10:04:00;;;;;;;2.67;1.70;;;12.80;99.90;;;;;;5035456;28;20437;-62
2023/11/01 10:06:28;;;;;;;6.00;2.40;;;12.90;99.90;;;;;;5035461;28;20480;-61
2023/11/01 10:08:55;;;;;;;2.73;1.60;;;12.90;99.90;;;;;;5034967;28;20445;-63
2023/11/01 10:11:23;;;;;;;5.03;1.53;;;13.00;99.90;;;;;;5035155;28;20461;-62
2023/11/01 10:13:51;;;;;;;2.03;1.50;;;13.00;99.90;;;;;;5035373;28;20487;-61
2023/11/01 10:16:18;;;;;;;1.93;1.43;;;13.10;99.90;;;;;;5036142;28;20449;-62
2023/11/01 10:18:47;;;;;;;4.17;1.53;;;13.30;99.90;;;;;;5036071;28;20458;-62
2023/11/01 10:21:14;;;;;;;4.10;1.93;;;13.30;99.90;;;;;;5038427;28;20560;-61
2023/11/01 10:23:41;;;;;;;1.73;1.30;;;13.50;99.90;;;;;;5038951;28;20942;-62
2023/11/01 10:26:08;;;;;;;4.03;1.60;;;13.60;99.90;;;;;;5042762;28;20452;-63
2023/11/01 10:28:38;;;;;;;6.93;1.90;;;13.70;99.90;;;;;;5042158;28;20453;-62
2023/11/01 10:31:06;;;;;;;3.80;1.10;;;13.80;99.90;;;;;;5043022;28;20461;-62
2023/11/01 10:33:34;;;;;;;2.37;1.03;;;13.90;99.90;;;;;;5040761;28;20483;-62
2023/11/01 10:36:02;;;;;;;2.63;1.17;;;13.90;99.90;;;;;;5037517;28;20453;-62
2023/11/01 10:38:30;;;;;;;1.60;1.00;;;13.90;99.90;;;;;;5034876;28;20626;-62
2023/11/01 10:40:58;;;;;;;3.53;1.33;;;13.90;99.90;;;;;;5034945;28;20441;-62
2023/11/01 10:43:27;;;;;;;6.60;1.70;;;13.90;99.90;;;;;;5035235;28;20437;-62
2023/11/01 10:45:55;;;;;;;2.13;1.00;;;13.90;99.90;;;;;;5034285;28;20447;-61
2023/11/01 10:48:24;;;;;;;3.20;1.53;;;14.00;99.90;;;;;;5034321;28;20437;-62
2023/11/01 10:50:52;;;;;;;2.27;1.33;;;14.10;99.90;;;;;;5034230;28;20451;-61
2023/11/01 10:53:22;;;;;;;2.23;1.40;;;14.20;99.90;;;;;;5034404;28;21105;-62
2023/11/01 10:55:51;;;;;;;3.60;1.70;;;14.30;99.90;;;;;;5034797;28;20524;-61
2023/11/01 10:58:21;;;;;;;2.43;1.27;;;14.40;99.90;;;;;;5034571;28;20449;-62
2023/11/01 11:00:50;;;;;;;1.80;1.03;;;14.60;99.90;;;;;;5033986;28;20459;-61
2023/11/01 11:03:26;;;;;;;1.97;1.27;;;14.60;99.90;;;;;;5033712;28;20906;-62
2023/11/01 11:05:54;;;;;;;1.27;1.13;;;14.70;99.90;;;;;;5034168;28;20429;-62
2023/11/01 11:08:21;;;;;;;3.37;0.90;;;14.80;99.90;;;;;;5034034;28;20445;-61
2023/11/01 11:10:48;;;;;;;2.70;1.10;;;14.80;99.90;;;;;;5034014;28;20440;-63
2023/11/01 11:13:29;;;;;;;2.20;1.20;;;14.90;99.90;;;;;;5033904;28;20484;-62
2023/11/01 11:15:59;;;;;;;3.67;1.40;;;15.00;99.90;;;;;;5030777;28;20452;-62
2023/11/01 11:18:28;;;;;;;3.40;1.57;;;15.00;99.90;;;;;;5034034;28;20515;-63
2023/11/01 11:20:58;;;;;;;2.70;1.37;;;15.10;99.90;;;;;;5033431;28;20436;-63
2023/11/01 11:23:31;;;;;;;2.00;1.40;;;15.10;99.90;;;;;;5034537;28;20469;-62
2023/11/01 11:25:59;;;;;;;1.90;1.10;;;15.10;99.90;;;;;;5034056;28;20492;-63
2023/11/01 11:28:47;;;;;;;2.43;1.37;;;15.10;99.90;;;;;;5033755;28;20813;-61
2023/11/01 11:31:20;;;;;;;2.80;1.60;;;15.20;99.90;;;;;;5034258;28;20473;-61
2023/11/01 11:34:13;;;;;;;2.67;1.60;;;15.20;99.90;;;;;;5034009;28;20492;-62
2023/11/01 11:36:59;;;;;;;3.53;1.30;;;15.20;99.90;;;;;;5014579;28;20610;-63
2023/11/01 11:39:51;;;;;;;3.60;1.70;;;15.20;99.90;;;;;;5033179;28;20451;-62
2023/11/01 11:42:50;;;;;;;2.90;1.40;;;15.20;99.90;;;;;;5033507;28;20453;-63
2023/11/01 11:45:27;;;;;;;3.50;1.50;;;15.20;99.90;;;;;;5034205;28;20425;-61
2023/11/01 11:47:55;;;;;;;3.17;1.87;;;15.20;99.90;;;;;;5033730;28;20444;-61
2023/11/01 11:50:24;;;;;;;5.23;1.77;;;15.20;99.90;;;;;;5033748;28;20453;-63
2023/11/01 11:52:51;;;;;;;3.03;1.40;;;15.20;99.90;;;;;;5033559;28;20543;-62
2023/11/01 11:55:18;;;;;;;5.63;1.40;;;15.20;99.90;;;;;;5032937;28;20811;-62
2023/11/01 11:57:45;;;;;;;2.20;1.50;;;15.20;99.90;;;;;;5033495;28;20442;-63
2023/11/01 12:00:13;;;;;;;2.57;1.30;;;15.20;99.90;;;;;;5033662;28;20444;-62
2023/11/01 12:02:39;;;;;;;2.57;1.20;;;15.30;99.90;;;;;;5033895;28;20653;-61
2023/11/01 12:05:06;;;;;;;5.90;3.40;;;15.30;99.90;;;;;;5034203;28;20441;-62
2023/11/01 12:07:43;;;;;;;2.83;1.50;;;15.30;99.90;;;;;;5033999;28;20823;-62
2023/11/01 12:10:11;;;;;;;2.17;1.37;;;15.30;99.90;;;;;;5033699;28;20494;-62
2023/11/01 12:12:38;;;;;;;4.03;1.50;;;15.20;99.90;;;;;;5033574;28;20534;-63
2023/11/01 12:15:06;;;;;;;2.20;1.77;;;15.20;99.90;;;;;;5033502;28;20437;-62
2023/11/01 12:17:34;;;;;;;3.17;1.60;;;15.20;99.90;;;;;;5034003;28;20528;-62
2023/11/01 12:20:01;;;;;;;4.20;1.77;;;15.20;99.90;;;;;;5033249;28;20516;-62
2023/11/01 12:22:28;;;;;;;4.10;1.90;;;15.20;99.90;;;;;;5032930;28;21002;-62
2023/11/01 12:24:56;;;;;;;4.53;1.67;;;15.20;99.90;;;;;;5033609;28;20445;-61
2023/11/01 12:27:29;;;;;;;4.70;1.53;;;15.20;99.90;;;;;;5033559;28;20448;-62
2023/11/01 12:29:57;;;;;;;2.30;1.50;;;15.20;99.90;;;;;;5033014;28;20455;-62
2023/11/01 12:32:30;;;;;;;3.20;1.53;;;15.30;99.90;;;;;;5034098;28;20832;-62
2023/11/01 12:35:07;;;;;;;9.37;1.67;;;15.30;99.90;;;;;;5036849;28;20965;-60
2023/11/01 12:37:35;;;;;;;3.23;1.17;;;15.40;99.90;;;;;;5037420;28;20867;-60
2023/11/01 12:40:09;;;;;;;3.87;1.70;;;15.40;99.90;;;;;;5038388;28;20436;-62
2023/11/01 12:42:37;;;;;;;22.97;3.20;;;15.40;99.90;;;;;;5039341;28;20500;-61
2023/11/01 12:45:05;;;;;;;5.80;1.83;;;15.40;99.90;;;;;;5039656;28;20445;-63
2023/11/01 12:47:41;;;;;;;6.30;1.53;;;15.40;99.90;;;;;;5042511;28;20456;-63
2023/11/01 12:50:09;;;;;;;9.60;2.10;;;15.30;99.90;;;;;;5042244;28;20425;-63
2023/11/01 12:52:36;;;;;;;4.27;1.90;;;15.30;99.90;;;;;;5042568;28;20533;-63